Terminal Aerodrome Forecast
Issued by NWS Charleston, WV

Current Version | Previous Version | Graphics & Text | Print | Product List | Glossary On
Versions: 1 2 3 4 5 6 7 8 9 10 11 12 13 14 15 16 17 18 19 20 21 22 23 24 25
000
FTUS41 KRLX 281700
TAFEKN
TAF
KEKN 281740Z 2818/2918 29012G22KT P6SM SCT050
     FM282000 25011G16KT P6SM BKN050
     FM290000 22007KT 5SM -SHRA BKN035
     FM290500 25005KT 5SM -SHRA BR OVC025
     FM290700 26005KT 5SM -SHRA BR OVC020
     FM291000 29006KT 6SM BR OVC025
     FM291100 27005KT P6SM OVC035
     FM291200 26005KT P6SM BKN050=

USA.gov is the U.S. government's official web portal to all federal, state and local government web resources and services.